Detall de PIREP

Printer-friendly versionPDF version

[2015/04/26 08:25:00]
Flight IATA:CT2200
Pilot Number:016
Company ICAO:CAT
Aircraft Type:B738/F
PAX:118
Departing Airport: LFMP
Destination Airport: LFOH
Alternate Airport:LFPB
Online: VATSIM
Route:ORBIL G36 LMG R10 AMB A34 DVL
Flight Level:F320
No Slew and time accel
No pause
Crash detect
Detect pilot in Cockpit between each 30 and 45 minutes
08:25 Zero fuel Weight: 115338 Lbs, Fuel Weight: 19768 Lbs
08:25 VATSIM:LFMP 261500Z AUTO 12006KT 090V150 9000 -TSRA FEW037/// SCT052/// BKN082/// ///CB 17/15 Q1004
08:25 VATSIM:LFOH 261500Z AUTO 36010KT 4700 BR FEW002 BKN044 OVC052 13/11 Q1005
08:25 Parking Brakes off
08:32 Take-off
08:32 Take off Weight: 134361 Lbs
08:32 Wind: 112º @ 009 Knots Heading: 146º
08:32 POS N42º 44´ 32´´ E002º 52´ 17´´
08:32 Gear Up: 169 Knots
08:32 Flaps:3 at 169 Knots
08:34 Flaps:2 at 210 Knots
08:34 Flaps:1 at 242 Knots
08:34 Flaps:0 at 246 Knots
08:45 TOC
08:45 Fuel Weight: 15908 Lb
08:47 Wind:130º@025 Knots Heading: 345º Ground Speed: 473 Knots Altitude 31735 ft
09:02 Wind:198º@017 Knots Heading: 359º Ground Speed: 483 Knots Altitude 31696 ft
09:15 TOD
09:15 Fuel Weight: 12775 Lb
09:17 Wind:028º@025 Knots Heading: 347º Ground Speed: 377 Knots Altitude 27687 ft
09:28 Flaps:1 at 251 Knots
09:30 Flaps:2 at 204 Knots
09:32 Wind:011º@016 Knots Heading: 015º Ground Speed: 187 Knots Altitude 6607 ft
09:32 Flaps:3 at 184 Knots
09:33 Flaps:4 at 164 Knots
09:35 Flaps:5 at 158 Knots
09:35 Flaps:6 at 143 Knots
09:36 Flaps:7 at 133 Knots
09:36 Gear Down: 132 Knots
09:37 Flaps:8 at 135 Knots
09:41 TouchDown:Rate -251 ft/min Speed: 133 Knots
09:41 VATSIM:LFOH 261630Z AUTO 01009KT 9999 FEW002 SCT006 BKN047 12/11 Q1005
09:41 Land
09:41 Wind:007º@008 Knots
09:41 Heading: 221º
09:41 Flight Duration: 01:09
09:41 Landing Weight: 126545 Lbs
09:41 POS N49º 31´ 52´´ E000º 05´ 02´´
09:44 Parking brakes on
09:44 Block to Block Duration: 01:19
09:44 Final Fuel: 10970 Lbls
09:44 Spent Fuel: 8798 Lbls
09:44 Flight Length: 425 NM
09:44 TOD Land Length: 107 NM

Exportar CSV

Powered by Drupal - Modified by Danger4k